sensor_id;sensor_type;location;lat;lon;timestamp;temperature;humidity
20174;DHT22;10246;50.620;7.232;2023-09-12T00:00:02;23.60;1.00
20174;DHT22;10246;50.620;7.232;2023-09-12T00:02:30;23.60;1.00
20174;DHT22;10246;50.620;7.232;2023-09-12T00:04:57;23.60;1.00
20174;DHT22;10246;50.620;7.232;2023-09-12T00:07:24;23.60;1.00
20174;DHT22;10246;50.620;7.232;2023-09-12T00:09:52;23.60;1.00
20174;DHT22;10246;50.620;7.232;2023-09-12T00:12:23;23.50;1.00
20174;DHT22;10246;50.620;7.232;2023-09-12T00:14:50;23.60;1.00
20174;DHT22;10246;50.620;7.232;2023-09-12T00:17:16;23.50;1.00
20174;DHT22;10246;50.620;7.232;2023-09-12T00:19:43;23.50;1.00
20174;DHT22;10246;50.620;7.232;2023-09-12T00:22:10;23.60;1.00
20174;DHT22;10246;50.620;7.232;2023-09-12T00:24:36;23.60;1.00
20174;DHT22;10246;50.620;7.232;2023-09-12T00:27:05;23.60;1.00
20174;DHT22;10246;50.620;7.232;2023-09-12T00:29:32;23.60;1.00
20174;DHT22;10246;50.620;7.232;2023-09-12T00:31:59;23.50;1.00
20174;DHT22;10246;50.620;7.232;2023-09-12T00:34:26;23.50;1.00
20174;DHT22;10246;50.620;7.232;2023-09-12T00:36:53;23.50;1.00
20174;DHT22;10246;50.620;7.232;2023-09-12T00:39:19;23.40;1.00
20174;DHT22;10246;50.620;7.232;2023-09-12T00:41:46;23.40;1.00
20174;DHT22;10246;50.620;7.232;2023-09-12T00:44:14;23.40;1.00
20174;DHT22;10246;50.620;7.232;2023-09-12T00:46:42;23.50;1.00
20174;DHT22;10246;50.620;7.232;2023-09-12T00:49:10;23.50;1.00
20174;DHT22;10246;50.620;7.232;2023-09-12T00:51:39;23.50;1.00
20174;DHT22;10246;50.620;7.232;2023-09-12T00:54:06;23.50;1.00
20174;DHT22;10246;50.620;7.232;2023-09-12T00:56:33;23.40;1.00
20174;DHT22;10246;50.620;7.232;2023-09-12T00:59:01;23.40;1.00
20174;DHT22;10246;50.620;7.232;2023-09-12T01:01:29;23.40;1.00
20174;DHT22;10246;50.620;7.232;2023-09-12T01:03:57;23.40;1.00
20174;DHT22;10246;50.620;7.232;2023-09-12T01:06:25;23.30;1.00
20174;DHT22;10246;50.620;7.232;2023-09-12T01:08:53;23.30;1.00
20174;DHT22;10246;50.620;7.232;2023-09-12T01:11:20;23.40;1.00
20174;DHT22;10246;50.620;7.232;2023-09-12T01:13:47;23.30;1.00
20174;DHT22;10246;50.620;7.232;2023-09-12T01:16:14;23.20;1.00
20174;DHT22;10246;50.620;7.232;2023-09-12T01:18:42;23.20;1.00
20174;DHT22;10246;50.620;7.232;2023-09-12T01:24:34;23.00;1.00
20174;DHT22;10246;50.620;7.232;2023-09-12T01:27:21;22.90;1.00
20174;DHT22;10246;50.620;7.232;2023-09-12T01:29:51;22.90;1.00
20174;DHT22;10246;50.620;7.232;2023-09-12T01:32:20;22.90;1.00
20174;DHT22;10246;50.620;7.232;2023-09-12T01:34:47;23.00;1.00
20174;DHT22;10246;50.620;7.232;2023-09-12T01:37:14;23.00;1.00
20174;DHT22;10246;50.620;7.232;2023-09-12T01:39:41;23.00;1.00
20174;DHT22;10246;50.620;7.232;2023-09-12T01:42:09;23.00;1.00
20174;DHT22;10246;50.620;7.232;2023-09-12T01:44:39;22.80;1.00
20174;DHT22;10246;50.620;7.232;2023-09-12T01:47:08;22.80;1.00
20174;DHT22;10246;50.620;7.232;2023-09-12T01:49:35;22.80;1.00
20174;DHT22;10246;50.620;7.232;2023-09-12T01:52:03;22.80;1.00
20174;DHT22;10246;50.620;7.232;2023-09-12T01:54:30;22.90;1.00
20174;DHT22;10246;50.620;7.232;2023-09-12T01:56:58;22.70;1.00
20174;DHT22;10246;50.620;7.232;2023-09-12T01:59:25;22.70;1.00
20174;DHT22;10246;50.620;7.232;2023-09-12T02:01:53;22.60;1.00
20174;DHT22;10246;50.620;7.232;2023-09-12T02:04:20;22.70;1.00
20174;DHT22;10246;50.620;7.232;2023-09-12T02:06:47;22.60;1.00
20174;DHT22;10246;50.620;7.232;2023-09-12T02:09:13;22.60;1.00
20174;DHT22;10246;50.620;7.232;2023-09-12T02:11:40;22.60;1.00
20174;DHT22;10246;50.620;7.232;2023-09-12T02:14:07;22.70;1.00
20174;DHT22;10246;50.620;7.232;2023-09-12T02:16:36;22.60;1.00
20174;DHT22;10246;50.620;7.232;2023-09-12T02:19:05;22.60;1.00
20174;DHT22;10246;50.620;7.232;2023-09-12T02:21:32;22.60;1.00
20174;DHT22;10246;50.620;7.232;2023-09-12T02:23:59;22.60;1.00
20174;DHT22;10246;50.620;7.232;2023-09-12T02:26:25;22.40;1.00
20174;DHT22;10246;50.620;7.232;2023-09-12T02:28:52;22.40;1.00
20174;DHT22;10246;50.620;7.232;2023-09-12T02:31:19;22.50;1.00
20174;DHT22;10246;50.620;7.232;2023-09-12T02:33:47;22.40;1.00
20174;DHT22;10246;50.620;7.232;2023-09-12T02:36:15;22.30;1.00
20174;DHT22;10246;50.620;7.232;2023-09-12T02:38:41;22.20;1.00
20174;DHT22;10246;50.620;7.232;2023-09-12T02:41:08;22.20;1.00
20174;DHT22;10246;50.620;7.232;2023-09-12T02:43:35;22.30;1.00
20174;DHT22;10246;50.620;7.232;2023-09-12T02:46:01;22.30;1.00
20174;DHT22;10246;50.620;7.232;2023-09-12T02:48:28;22.30;1.00
20174;DHT22;10246;50.620;7.232;2023-09-12T02:50:55;22.10;1.00
20174;DHT22;10246;50.620;7.232;2023-09-12T02:53:23;22.10;1.00
20174;DHT22;10246;50.620;7.232;2023-09-12T02:55:51;22.20;1.00
20174;DHT22;10246;50.620;7.232;2023-09-12T02:58:18;22.00;1.00
20174;DHT22;10246;50.620;7.232;2023-09-12T03:00:44;22.00;1.00
20174;DHT22;10246;50.620;7.232;2023-09-12T03:03:11;22.00;1.00
20174;DHT22;10246;50.620;7.232;2023-09-12T03:05:38;22.00;1.00
20174;DHT22;10246;50.620;7.232;2023-09-12T03:08:05;22.00;1.00
20174;DHT22;10246;50.620;7.232;2023-09-12T03:10:33;22.00;1.00
20174;DHT22;10246;50.620;7.232;2023-09-12T03:12:59;21.90;1.00
20174;DHT22;10246;50.620;7.232;2023-09-12T03:15:26;21.80;1.00
20174;DHT22;10246;50.620;7.232;2023-09-12T03:17:53;21.80;1.00
20174;DHT22;10246;50.620;7.232;2023-09-12T03:20:20;21.90;1.00
20174;DHT22;10246;50.620;7.232;2023-09-12T03:22:46;21.80;1.00
20174;DHT22;10246;50.620;7.232;2023-09-12T03:25:13;21.80;1.00
20174;DHT22;10246;50.620;7.232;2023-09-12T03:27:41;21.80;1.00
20174;DHT22;10246;50.620;7.232;2023-09-12T03:30:09;21.80;1.00
20174;DHT22;10246;50.620;7.232;2023-09-12T03:32:36;21.70;1.00
20174;DHT22;10246;50.620;7.232;2023-09-12T03:35:03;21.70;1.00
20174;DHT22;10246;50.620;7.232;2023-09-12T03:37:29;21.70;1.00
20174;DHT22;10246;50.620;7.232;2023-09-12T03:39:56;21.60;1.00
20174;DHT22;10246;50.620;7.232;2023-09-12T03:42:23;21.70;1.00
20174;DHT22;10246;50.620;7.232;2023-09-12T03:44:51;21.60;1.00
20174;DHT22;10246;50.620;7.232;2023-09-12T03:47:18;21.70;1.00
20174;DHT22;10246;50.620;7.232;2023-09-12T03:49:44;21.70;1.00
20174;DHT22;10246;50.620;7.232;2023-09-12T03:52:11;21.70;1.00
20174;DHT22;10246;50.620;7.232;2023-09-12T03:54:38;21.60;1.00
20174;DHT22;10246;50.620;7.232;2023-09-12T03:57:04;21.60;1.00
20174;DHT22;10246;50.620;7.232;2023-09-12T03:59:31;21.70;1.00
20174;DHT22;10246;50.620;7.232;2023-09-12T04:02:01;21.70;1.00
20174;DHT22;10246;50.620;7.232;2023-09-12T04:04:28;21.70;1.00
20174;DHT22;10246;50.620;7.232;2023-09-12T04:06:54;21.70;1.00
20174;DHT22;10246;50.620;7.232;2023-09-12T04:09:21;21.60;1.00
20174;DHT22;10246;50.620;7.232;2023-09-12T04:11:48;21.60;1.00
20174;DHT22;10246;50.620;7.232;2023-09-12T04:14:15;21.60;1.00
20174;DHT22;10246;50.620;7.232;2023-09-12T04:16:41;21.60;1.40
20174;DHT22;10246;50.620;7.232;2023-09-12T04:19:09;21.60;1.20
20174;DHT22;10246;50.620;7.232;2023-09-12T04:21:36;21.60;1.50
20174;DHT22;10246;50.620;7.232;2023-09-12T04:24:03;21.50;1.70
20174;DHT22;10246;50.620;7.232;2023-09-12T04:26:30;21.50;1.90
20174;DHT22;10246;50.620;7.232;2023-09-12T04:28:57;21.50;1.70
20174;DHT22;10246;50.620;7.232;2023-09-12T04:31:23;21.50;1.90
20174;DHT22;10246;50.620;7.232;2023-09-12T04:33:51;21.50;1.90
20174;DHT22;10246;50.620;7.232;2023-09-12T04:36:19;21.40;2.30
20174;DHT22;10246;50.620;7.232;2023-09-12T04:38:46;21.30;2.80
20174;DHT22;10246;50.620;7.232;2023-09-12T04:41:13;21.20;3.60
20174;DHT22;10246;50.620;7.232;2023-09-12T04:43:42;21.20;3.70
20174;DHT22;10246;50.620;7.232;2023-09-12T04:46:09;21.20;3.70
20174;DHT22;10246;50.620;7.232;2023-09-12T04:48:36;21.20;3.70
20174;DHT22;10246;50.620;7.232;2023-09-12T04:51:03;21.20;3.90
20174;DHT22;10246;50.620;7.232;2023-09-12T04:53:31;21.20;3.70
20174;DHT22;10246;50.620;7.232;2023-09-12T04:56:00;21.20;3.70
20174;DHT22;10246;50.620;7.232;2023-09-12T04:58:27;21.00;4.00
20174;DHT22;10246;50.620;7.232;2023-09-12T05:00:54;21.00;4.30
20174;DHT22;10246;50.620;7.232;2023-09-12T05:03:21;21.10;4.30
20174;DHT22;10246;50.620;7.232;2023-09-12T05:05:48;21.00;4.40
20174;DHT22;10246;50.620;7.232;2023-09-12T05:08:15;21.00;4.70
20174;DHT22;10246;50.620;7.232;2023-09-12T05:10:45;21.00;4.70
20174;DHT22;10246;50.620;7.232;2023-09-12T05:13:12;21.00;5.10
20174;DHT22;10246;50.620;7.232;2023-09-12T05:15:40;21.00;5.40
20174;DHT22;10246;50.620;7.232;2023-09-12T05:18:07;21.00;5.50
20174;DHT22;10246;50.620;7.232;2023-09-12T05:20:34;21.00;5.60
20174;DHT22;10246;50.620;7.232;2023-09-12T05:23:01;21.00;5.30
20174;DHT22;10246;50.620;7.232;2023-09-12T05:25:28;20.90;5.60
20174;DHT22;10246;50.620;7.232;2023-09-12T05:27:56;20.90;5.60
20174;DHT22;10246;50.620;7.232;2023-09-12T05:30:23;20.90;5.90
20174;DHT22;10246;50.620;7.232;2023-09-12T05:32:50;20.90;5.80
20174;DHT22;10246;50.620;7.232;2023-09-12T05:35:17;20.90;5.60
20174;DHT22;10246;50.620;7.232;2023-09-12T05:37:43;20.90;5.70
20174;DHT22;10246;50.620;7.232;2023-09-12T05:40:10;21.00;5.70
20174;DHT22;10246;50.620;7.232;2023-09-12T05:42:37;21.00;5.70
20174;DHT22;10246;50.620;7.232;2023-09-12T05:45:06;20.90;5.70
20174;DHT22;10246;50.620;7.232;2023-09-12T05:47:33;21.00;5.70
20174;DHT22;10246;50.620;7.232;2023-09-12T05:49:59;21.10;5.80
20174;DHT22;10246;50.620;7.232;2023-09-12T05:52:26;21.00;5.70
20174;DHT22;10246;50.620;7.232;2023-09-12T05:54:53;21.10;5.80
20174;DHT22;10246;50.620;7.232;2023-09-12T05:57:19;21.20;5.70
20174;DHT22;10246;50.620;7.232;2023-09-12T05:59:46;21.10;5.80
20174;DHT22;10246;50.620;7.232;2023-09-12T06:02:14;21.10;5.80
20174;DHT22;10246;50.620;7.232;2023-09-12T06:04:41;21.20;5.90
20174;DHT22;10246;50.620;7.232;2023-09-12T06:07:08;21.20;5.60
20174;DHT22;10246;50.620;7.232;2023-09-12T06:09:35;21.20;5.60
20174;DHT22;10246;50.620;7.232;2023-09-12T06:12:02;21.20;5.80
20174;DHT22;10246;50.620;7.232;2023-09-12T06:14:29;21.20;5.30
20174;DHT22;10246;50.620;7.232;2023-09-12T06:16:56;21.30;5.20
20174;DHT22;10246;50.620;7.232;2023-09-12T06:19:24;21.30;4.50
20174;DHT22;10246;50.620;7.232;2023-09-12T06:21:51;21.40;4.30
20174;DHT22;10246;50.620;7.232;2023-09-12T06:24:20;21.50;3.70
20174;DHT22;10246;50.620;7.232;2023-09-12T06:26:47;21.40;3.90
20174;DHT22;10246;50.620;7.232;2023-09-12T06:29:14;21.50;3.80
20174;DHT22;10246;50.620;7.232;2023-09-12T06:31:41;21.60;3.50
20174;DHT22;10246;50.620;7.232;2023-09-12T06:34:08;21.60;4.10
20174;DHT22;10246;50.620;7.232;2023-09-12T06:36:38;21.70;3.20
20174;DHT22;10246;50.620;7.232;2023-09-12T06:39:07;21.70;2.90
20174;DHT22;10246;50.620;7.232;2023-09-12T06:41:34;21.70;2.80
20174;DHT22;10246;50.620;7.232;2023-09-12T06:44:01;21.80;2.90
20174;DHT22;10246;50.620;7.232;2023-09-12T06:46:29;21.90;2.60
20174;DHT22;10246;50.620;7.232;2023-09-12T06:48:56;21.90;2.20
20174;DHT22;10246;50.620;7.232;2023-09-12T06:51:24;21.90;2.10
20174;DHT22;10246;50.620;7.232;2023-09-12T06:53:52;22.00;2.10
20174;DHT22;10246;50.620;7.232;2023-09-12T06:56:19;22.00;1.70
20174;DHT22;10246;50.620;7.232;2023-09-12T06:58:47;22.10;1.60
20174;DHT22;10246;50.620;7.232;2023-09-12T07:01:14;22.10;1.40
20174;DHT22;10246;50.620;7.232;2023-09-12T07:03:41;22.10;1.40
20174;DHT22;10246;50.620;7.232;2023-09-12T07:06:08;22.20;1.00
20174;DHT22;10246;50.620;7.232;2023-09-12T07:08:35;22.20;1.00
20174;DHT22;10246;50.620;7.232;2023-09-12T07:11:04;22.20;1.00
20174;DHT22;10246;50.620;7.232;2023-09-12T07:13:32;22.30;1.00
20174;DHT22;10246;50.620;7.232;2023-09-12T07:15:59;22.30;1.00
20174;DHT22;10246;50.620;7.232;2023-09-12T07:18:29;22.30;1.00
20174;DHT22;10246;50.620;7.232;2023-09-12T07:20:59;22.20;1.00
20174;DHT22;10246;50.620;7.232;2023-09-12T07:23:27;22.20;1.10
20174;DHT22;10246;50.620;7.232;2023-09-12T07:25:55;22.20;1.50
20174;DHT22;10246;50.620;7.232;2023-09-12T07:28:24;22.20;1.00
20174;DHT22;10246;50.620;7.232;2023-09-12T07:30:51;22.30;1.00
20174;DHT22;10246;50.620;7.232;2023-09-12T07:33:18;22.30;1.00
20174;DHT22;10246;50.620;7.232;2023-09-12T07:35:46;22.30;1.00
20174;DHT22;10246;50.620;7.232;2023-09-12T07:38:13;22.30;1.00
20174;DHT22;10246;50.620;7.232;2023-09-12T07:40:41;22.40;1.00
20174;DHT22;10246;50.620;7.232;2023-09-12T07:43:08;22.50;1.00
20174;DHT22;10246;50.620;7.232;2023-09-12T07:45:36;22.50;1.00
20174;DHT22;10246;50.620;7.232;2023-09-12T07:48:05;22.60;1.00
20174;DHT22;10246;50.620;7.232;2023-09-12T07:50:32;22.70;1.00
20174;DHT22;10246;50.620;7.232;2023-09-12T07:52:59;22.80;1.00
20174;DHT22;10246;50.620;7.232;2023-09-12T07:55:26;22.90;1.00
20174;DHT22;10246;50.620;7.232;2023-09-12T07:57:56;22.90;1.00
20174;DHT22;10246;50.620;7.232;2023-09-12T08:00:24;22.80;1.00
20174;DHT22;10246;50.620;7.232;2023-09-12T08:02:52;22.90;1.00
20174;DHT22;10246;50.620;7.232;2023-09-12T08:05:19;22.90;1.00
20174;DHT22;10246;50.620;7.232;2023-09-12T08:07:46;23.00;1.00
20174;DHT22;10246;50.620;7.232;2023-09-12T08:10:12;23.10;1.00
20174;DHT22;10246;50.620;7.232;2023-09-12T08:12:39;23.00;1.00
20174;DHT22;10246;50.620;7.232;2023-09-12T08:15:08;23.10;1.00
20174;DHT22;10246;50.620;7.232;2023-09-12T08:17:35;23.20;1.00
20174;DHT22;10246;50.620;7.232;2023-09-12T08:20:03;23.30;1.00
20174;DHT22;10246;50.620;7.232;2023-09-12T08:22:30;23.20;1.00
20174;DHT22;10246;50.620;7.232;2023-09-12T08:24:57;23.30;1.00
20174;DHT22;10246;50.620;7.232;2023-09-12T08:27:24;23.20;1.00
20174;DHT22;10246;50.620;7.232;2023-09-12T08:29:50;23.30;1.00
20174;DHT22;10246;50.620;7.232;2023-09-12T08:32:17;23.30;1.00
20174;DHT22;10246;50.620;7.232;2023-09-12T08:34:44;23.30;1.00
20174;DHT22;10246;50.620;7.232;2023-09-12T08:37:12;23.30;1.00
20174;DHT22;10246;50.620;7.232;2023-09-12T08:39:43;23.50;1.00
20174;DHT22;10246;50.620;7.232;2023-09-12T08:42:12;23.60;1.00
20174;DHT22;10246;50.620;7.232;2023-09-12T08:44:40;23.50;1.00
20174;DHT22;10246;50.620;7.232;2023-09-12T08:47:08;23.50;1.00
20174;DHT22;10246;50.620;7.232;2023-09-12T08:49:36;23.60;1.00
20174;DHT22;10246;50.620;7.232;2023-09-12T08:52:04;23.60;1.00
20174;DHT22;10246;50.620;7.232;2023-09-12T08:54:32;23.70;1.00
20174;DHT22;10246;50.620;7.232;2023-09-12T08:57:01;23.70;1.00
20174;DHT22;10246;50.620;7.232;2023-09-12T08:59:29;23.80;1.00
20174;DHT22;10246;50.620;7.232;2023-09-12T09:01:58;23.80;1.00
20174;DHT22;10246;50.620;7.232;2023-09-12T09:04:28;23.80;1.00
20174;DHT22;10246;50.620;7.232;2023-09-12T09:06:57;24.00;1.00
20174;DHT22;10246;50.620;7.232;2023-09-12T09:09:24;24.10;1.00
20174;DHT22;10246;50.620;7.232;2023-09-12T09:11:52;24.10;1.00
20174;DHT22;10246;50.620;7.232;2023-09-12T09:14:19;24.10;1.00
20174;DHT22;10246;50.620;7.232;2023-09-12T09:16:45;24.20;1.00
20174;DHT22;10246;50.620;7.232;2023-09-12T09:19:12;24.40;1.00
20174;DHT22;10246;50.620;7.232;2023-09-12T09:21:41;24.50;1.00
20174;DHT22;10246;50.620;7.232;2023-09-12T09:24:09;24.40;1.00
20174;DHT22;10246;50.620;7.232;2023-09-12T09:26:43;24.20;1.00
20174;DHT22;10246;50.620;7.232;2023-09-12T09:29:16;23.90;1.00
20174;DHT22;10246;50.620;7.232;2023-09-12T09:31:45;24.00;1.00
20174;DHT22;10246;50.620;7.232;2023-09-12T09:34:14;24.10;1.00
20174;DHT22;10246;50.620;7.232;2023-09-12T09:36:41;24.10;1.00
20174;DHT22;10246;50.620;7.232;2023-09-12T09:39:09;24.10;1.00
20174;DHT22;10246;50.620;7.232;2023-09-12T09:41:36;24.00;1.00
20174;DHT22;10246;50.620;7.232;2023-09-12T09:44:05;24.10;1.00
20174;DHT22;10246;50.620;7.232;2023-09-12T09:46:33;24.10;1.00
20174;DHT22;10246;50.620;7.232;2023-09-12T09:49:00;24.30;1.00
20174;DHT22;10246;50.620;7.232;2023-09-12T09:51:27;24.20;1.00
20174;DHT22;10246;50.620;7.232;2023-09-12T09:53:55;24.10;1.00
20174;DHT22;10246;50.620;7.232;2023-09-12T09:56:24;24.20;1.00
20174;DHT22;10246;50.620;7.232;2023-09-12T09:58:53;24.30;1.00
20174;DHT22;10246;50.620;7.232;2023-09-12T10:01:22;24.40;1.00
20174;DHT22;10246;50.620;7.232;2023-09-12T10:03:52;24.30;1.00
20174;DHT22;10246;50.620;7.232;2023-09-12T10:06:19;24.40;1.00
20174;DHT22;10246;50.620;7.232;2023-09-12T10:08:50;24.40;1.00
20174;DHT22;10246;50.620;7.232;2023-09-12T10:11:19;24.40;1.00
20174;DHT22;10246;50.620;7.232;2023-09-12T10:13:53;24.50;1.00
20174;DHT22;10246;50.620;7.232;2023-09-12T10:16:23;24.70;1.00
20174;DHT22;10246;50.620;7.232;2023-09-12T10:18:57;24.70;1.00
20174;DHT22;10246;50.620;7.232;2023-09-12T10:21:29;24.70;1.00
20174;DHT22;10246;50.620;7.232;2023-09-12T10:23:58;24.80;1.00
20174;DHT22;10246;50.620;7.232;2023-09-12T10:26:25;24.90;1.00
20174;DHT22;10246;50.620;7.232;2023-09-12T10:28:54;25.10;1.00
20174;DHT22;10246;50.620;7.232;2023-09-12T10:31:22;25.40;1.00
20174;DHT22;10246;50.620;7.232;2023-09-12T10:33:52;25.60;1.00
20174;DHT22;10246;50.620;7.232;2023-09-12T10:36:20;25.70;1.00
20174;DHT22;10246;50.620;7.232;2023-09-12T10:38:48;25.80;1.00
20174;DHT22;10246;50.620;7.232;2023-09-12T10:41:15;25.90;1.00
20174;DHT22;10246;50.620;7.232;2023-09-12T10:43:43;26.00;1.00
20174;DHT22;10246;50.620;7.232;2023-09-12T10:46:12;26.10;1.00
20174;DHT22;10246;50.620;7.232;2023-09-12T10:48:39;26.00;1.00
20174;DHT22;10246;50.620;7.232;2023-09-12T10:51:08;26.00;1.00
20174;DHT22;10246;50.620;7.232;2023-09-12T10:53:36;26.00;1.00
20174;DHT22;10246;50.620;7.232;2023-09-12T10:56:15;26.10;1.00
20174;DHT22;10246;50.620;7.232;2023-09-12T10:59:10;26.10;1.00
20174;DHT22;10246;50.620;7.232;2023-09-12T11:01:39;26.00;1.00
20174;DHT22;10246;50.620;7.232;2023-09-12T11:04:31;26.10;1.00
20174;DHT22;10246;50.620;7.232;2023-09-12T11:07:01;26.20;1.00
20174;DHT22;10246;50.620;7.232;2023-09-12T11:09:28;26.10;1.00
20174;DHT22;10246;50.620;7.232;2023-09-12T11:11:57;26.10;1.00
20174;DHT22;10246;50.620;7.232;2023-09-12T11:14:25;26.30;1.00
20174;DHT22;10246;50.620;7.232;2023-09-12T11:17:20;26.40;1.00
20174;DHT22;10246;50.620;7.232;2023-09-12T11:19:48;26.70;1.00
20174;DHT22;10246;50.620;7.232;2023-09-12T11:22:25;26.80;1.00
20174;DHT22;10246;50.620;7.232;2023-09-12T11:24:52;27.10;1.00
20174;DHT22;10246;50.620;7.232;2023-09-12T11:27:22;27.20;1.00
20174;DHT22;10246;50.620;7.232;2023-09-12T11:29:49;27.40;1.00
20174;DHT22;10246;50.620;7.232;2023-09-12T11:32:27;27.60;1.00
20174;DHT22;10246;50.620;7.232;2023-09-12T11:34:54;27.80;1.00
20174;DHT22;10246;50.620;7.232;2023-09-12T11:37:26;28.00;1.00
20174;DHT22;10246;50.620;7.232;2023-09-12T11:39:55;28.10;1.00
20174;DHT22;10246;50.620;7.232;2023-09-12T11:42:23;28.00;1.00
20174;DHT22;10246;50.620;7.232;2023-09-12T11:44:51;28.00;1.00
20174;DHT22;10246;50.620;7.232;2023-09-12T11:47:19;28.10;1.00
20174;DHT22;10246;50.620;7.232;2023-09-12T11:49:46;28.00;1.00
20174;DHT22;10246;50.620;7.232;2023-09-12T11:52:15;27.70;1.00
20174;DHT22;10246;50.620;7.232;2023-09-12T11:54:44;27.70;1.00
20174;DHT22;10246;50.620;7.232;2023-09-12T11:57:12;27.70;1.00
20174;DHT22;10246;50.620;7.232;2023-09-12T11:59:41;27.70;1.00
20174;DHT22;10246;50.620;7.232;2023-09-12T12:05:58;28.20;1.00
20174;DHT22;10246;50.620;7.232;2023-09-12T12:09:06;28.10;1.00
20174;DHT22;10246;50.620;7.232;2023-09-12T12:12:24;28.00;1.00
20174;DHT22;10246;50.620;7.232;2023-09-12T12:15:22;28.10;1.00
20174;DHT22;10246;50.620;7.232;2023-09-12T12:18:10;28.10;1.00
20174;DHT22;10246;50.620;7.232;2023-09-12T12:21:25;28.10;1.00
20174;DHT22;10246;50.620;7.232;2023-09-12T12:24:35;27.80;1.00
20174;DHT22;10246;50.620;7.232;2023-09-12T12:27:16;27.50;1.00
20174;DHT22;10246;50.620;7.232;2023-09-12T12:29:56;27.50;1.00
20174;DHT22;10246;50.620;7.232;2023-09-12T12:32:27;27.40;1.00
20174;DHT22;10246;50.620;7.232;2023-09-12T12:35:16;27.40;1.00
20174;DHT22;10246;50.620;7.232;2023-09-12T12:37:53;27.30;1.00
20174;DHT22;10246;50.620;7.232;2023-09-12T12:40:28;27.50;1.00
20174;DHT22;10246;50.620;7.232;2023-09-12T12:43:16;27.50;1.00
20174;DHT22;10246;50.620;7.232;2023-09-12T12:45:57;27.60;1.00
20174;DHT22;10246;50.620;7.232;2023-09-12T12:48:34;27.70;1.00
20174;DHT22;10246;50.620;7.232;2023-09-12T12:51:30;27.70;1.00
20174;DHT22;10246;50.620;7.232;2023-09-12T12:54:21;27.80;1.00
20174;DHT22;10246;50.620;7.232;2023-09-12T12:57:12;27.70;1.00
20174;DHT22;10246;50.620;7.232;2023-09-12T13:03:17;27.60;1.00
20174;DHT22;10246;50.620;7.232;2023-09-12T13:06:08;27.90;1.00
20174;DHT22;10246;50.620;7.232;2023-09-12T13:08:59;28.00;1.00
20174;DHT22;10246;50.620;7.232;2023-09-12T13:11:52;27.90;1.00
20174;DHT22;10246;50.620;7.232;2023-09-12T13:14:24;27.80;1.00
20174;DHT22;10246;50.620;7.232;2023-09-12T13:17:12;27.70;1.00
20174;DHT22;10246;50.620;7.232;2023-09-12T13:20:04;27.70;1.00
20174;DHT22;10246;50.620;7.232;2023-09-12T13:22:59;27.70;1.00
20174;DHT22;10246;50.620;7.232;2023-09-12T13:25:36;27.80;1.00
20174;DHT22;10246;50.620;7.232;2023-09-12T13:28:18;27.90;1.00
20174;DHT22;10246;50.620;7.232;2023-09-12T13:31:06;28.20;1.00
20174;DHT22;10246;50.620;7.232;2023-09-12T13:34:06;28.20;1.00
20174;DHT22;10246;50.620;7.232;2023-09-12T13:36:59;28.30;1.00
20174;DHT22;10246;50.620;7.232;2023-09-12T13:43:17;28.50;1.00
20174;DHT22;10246;50.620;7.232;2023-09-12T13:46:31;28.70;1.00
20174;DHT22;10246;50.620;7.232;2023-09-12T13:49:29;29.00;1.00
20174;DHT22;10246;50.620;7.232;2023-09-12T13:52:49;28.80;1.00
20174;DHT22;10246;50.620;7.232;2023-09-12T13:55:49;28.80;1.00
20174;DHT22;10246;50.620;7.232;2023-09-12T14:02:09;29.20;1.00
20174;DHT22;10246;50.620;7.232;2023-09-12T14:08:37;29.10;1.00
20174;DHT22;10246;50.620;7.232;2023-09-12T14:11:56;29.10;1.00
20174;DHT22;10246;50.620;7.232;2023-09-12T14:19:02;29.20;1.00
20174;DHT22;10246;50.620;7.232;2023-09-12T14:21:58;29.30;1.00
20174;DHT22;10246;50.620;7.232;2023-09-12T14:24:57;29.50;1.00
20174;DHT22;10246;50.620;7.232;2023-09-12T14:27:57;29.40;1.00
20174;DHT22;10246;50.620;7.232;2023-09-12T14:30:37;29.10;1.00
20174;DHT22;10246;50.620;7.232;2023-09-12T14:33:45;28.90;1.00
20174;DHT22;10246;50.620;7.232;2023-09-12T14:36:24;29.00;1.00
20174;DHT22;10246;50.620;7.232;2023-09-12T14:39:20;29.00;1.00
20174;DHT22;10246;50.620;7.232;2023-09-12T14:42:18;29.00;1.00
20174;DHT22;10246;50.620;7.232;2023-09-12T14:44:52;28.80;1.00
20174;DHT22;10246;50.620;7.232;2023-09-12T14:47:31;28.70;1.00
20174;DHT22;10246;50.620;7.232;2023-09-12T14:50:07;28.80;1.00
20174;DHT22;10246;50.620;7.232;2023-09-12T14:52:44;28.70;1.00
20174;DHT22;10246;50.620;7.232;2023-09-12T14:55:24;28.50;1.00
20174;DHT22;10246;50.620;7.232;2023-09-12T14:58:27;28.40;1.00
20174;DHT22;10246;50.620;7.232;2023-09-12T15:01:11;28.30;1.00
20174;DHT22;10246;50.620;7.232;2023-09-12T15:03:46;28.50;1.00
20174;DHT22;10246;50.620;7.232;2023-09-12T15:06:26;28.50;1.00
20174;DHT22;10246;50.620;7.232;2023-09-12T15:12:34;28.50;1.00
20174;DHT22;10246;50.620;7.232;2023-09-12T15:15:32;28.40;1.00
20174;DHT22;10246;50.620;7.232;2023-09-12T15:18:16;28.10;1.00
20174;DHT22;10246;50.620;7.232;2023-09-12T15:20:53;28.00;1.00
20174;DHT22;10246;50.620;7.232;2023-09-12T15:23:20;27.90;1.00
20174;DHT22;10246;50.620;7.232;2023-09-12T15:25:49;28.00;1.00
20174;DHT22;10246;50.620;7.232;2023-09-12T15:28:16;27.90;1.00
20174;DHT22;10246;50.620;7.232;2023-09-12T15:30:43;27.70;1.00
20174;DHT22;10246;50.620;7.232;2023-09-12T15:33:10;27.60;1.00
20174;DHT22;10246;50.620;7.232;2023-09-12T15:35:37;27.60;1.00
20174;DHT22;10246;50.620;7.232;2023-09-12T15:38:04;27.60;1.00
20174;DHT22;10246;50.620;7.232;2023-09-12T15:40:31;27.60;1.00
20174;DHT22;10246;50.620;7.232;2023-09-12T15:42:59;27.70;1.00
20174;DHT22;10246;50.620;7.232;2023-09-12T15:48:03;27.50;1.00
20174;DHT22;10246;50.620;7.232;2023-09-12T15:50:30;27.50;1.00
20174;DHT22;10246;50.620;7.232;2023-09-12T15:52:57;27.50;1.00
20174;DHT22;10246;50.620;7.232;2023-09-12T15:55:24;27.30;1.00
20174;DHT22;10246;50.620;7.232;2023-09-12T15:57:51;27.30;1.00
20174;DHT22;10246;50.620;7.232;2023-09-12T16:00:19;27.20;1.00
20174;DHT22;10246;50.620;7.232;2023-09-12T16:02:46;27.00;1.00
20174;DHT22;10246;50.620;7.232;2023-09-12T16:05:16;27.10;1.00
20174;DHT22;10246;50.620;7.232;2023-09-12T16:07:43;27.00;1.00
20174;DHT22;10246;50.620;7.232;2023-09-12T16:10:10;27.00;1.00
20174;DHT22;10246;50.620;7.232;2023-09-12T16:12:39;26.90;1.00
20174;DHT22;10246;50.620;7.232;2023-09-12T16:15:07;26.80;1.00
20174;DHT22;10246;50.620;7.232;2023-09-12T16:17:35;26.80;1.00
20174;DHT22;10246;50.620;7.232;2023-09-12T16:20:08;26.80;1.00
20174;DHT22;10246;50.620;7.232;2023-09-12T16:22:35;26.70;1.00
20174;DHT22;10246;50.620;7.232;2023-09-12T16:25:03;26.70;1.00
20174;DHT22;10246;50.620;7.232;2023-09-12T16:27:29;26.70;1.00
20174;DHT22;10246;50.620;7.232;2023-09-12T16:29:56;26.70;1.00
20174;DHT22;10246;50.620;7.232;2023-09-12T16:32:23;26.60;1.00
20174;DHT22;10246;50.620;7.232;2023-09-12T16:34:51;26.60;1.00
20174;DHT22;10246;50.620;7.232;2023-09-12T16:37:18;26.60;1.00
20174;DHT22;10246;50.620;7.232;2023-09-12T16:39:45;26.50;1.00
20174;DHT22;10246;50.620;7.232;2023-09-12T16:42:11;26.50;1.00